sensor_id;sensor_type;location;lat;lon;timestamp;P1;durP1;ratioP1;P2;durP2;ratioP2
12177;SDS011;6152;48.728;9.256;2022-12-29T00:01:36;2.08;;;1.15;;
12177;SDS011;6152;48.728;9.256;2022-12-29T00:04:03;1.40;;;1.30;;
12177;SDS011;6152;48.728;9.256;2022-12-29T00:06:30;2.65;;;1.58;;
12177;SDS011;6152;48.728;9.256;2022-12-29T00:08:56;3.55;;;1.30;;
12177;SDS011;6152;48.728;9.256;2022-12-29T00:11:24;2.30;;;1.30;;
12177;SDS011;6152;48.728;9.256;2022-12-29T00:13:51;4.82;;;1.50;;
12177;SDS011;6152;48.728;9.256;2022-12-29T00:16:37;2.25;;;1.10;;
12177;SDS011;6152;48.728;9.256;2022-12-29T00:19:06;1.45;;;1.35;;
12177;SDS011;6152;48.728;9.256;2022-12-29T00:21:52;3.10;;;1.58;;
12177;SDS011;6152;48.728;9.256;2022-12-29T00:24:37;2.25;;;1.17;;
12177;SDS011;6152;48.728;9.256;2022-12-29T00:27:21;3.15;;;1.20;;
12177;SDS011;6152;48.728;9.256;2022-12-29T00:30:13;3.50;;;1.60;;
12177;SDS011;6152;48.728;9.256;2022-12-29T00:33:11;1.58;;;1.10;;
12177;SDS011;6152;48.728;9.256;2022-12-29T00:36:09;3.85;;;1.50;;
12177;SDS011;6152;48.728;9.256;2022-12-29T00:38:48;2.05;;;1.00;;
12177;SDS011;6152;48.728;9.256;2022-12-29T00:41:39;3.05;;;1.50;;
12177;SDS011;6152;48.728;9.256;2022-12-29T00:44:24;1.50;;;1.20;;
12177;SDS011;6152;48.728;9.256;2022-12-29T00:46:50;1.40;;;1.00;;
12177;SDS011;6152;48.728;9.256;2022-12-29T00:49:16;1.73;;;1.10;;
12177;SDS011;6152;48.728;9.256;2022-12-29T00:51:59;1.30;;;1.05;;
12177;SDS011;6152;48.728;9.256;2022-12-29T00:54:33;2.40;;;1.27;;
12177;SDS011;6152;48.728;9.256;2022-12-29T00:57:01;2.25;;;1.20;;
12177;SDS011;6152;48.728;9.256;2022-12-29T00:59:28;2.17;;;1.02;;
12177;SDS011;6152;48.728;9.256;2022-12-29T01:01:55;1.10;;;1.00;;
12177;SDS011;6152;48.728;9.256;2022-12-29T01:04:22;2.70;;;0.90;;
12177;SDS011;6152;48.728;9.256;2022-12-29T01:06:49;1.42;;;1.10;;
12177;SDS011;6152;48.728;9.256;2022-12-29T01:09:16;0.77;;;0.70;;
12177;SDS011;6152;48.728;9.256;2022-12-29T01:12:02;1.30;;;1.10;;
12177;SDS011;6152;48.728;9.256;2022-12-29T01:14:29;1.80;;;0.77;;
12177;SDS011;6152;48.728;9.256;2022-12-29T01:16:55;1.30;;;1.17;;
12177;SDS011;6152;48.728;9.256;2022-12-29T01:19:21;1.83;;;1.00;;
12177;SDS011;6152;48.728;9.256;2022-12-29T01:21:48;1.67;;;0.80;;
12177;SDS011;6152;48.728;9.256;2022-12-29T01:24:16;3.80;;;1.25;;
12177;SDS011;6152;48.728;9.256;2022-12-29T01:26:43;0.98;;;0.70;;
12177;SDS011;6152;48.728;9.256;2022-12-29T01:29:09;1.17;;;0.93;;
12177;SDS011;6152;48.728;9.256;2022-12-29T01:31:36;1.17;;;1.05;;
12177;SDS011;6152;48.728;9.256;2022-12-29T01:34:02;2.53;;;0.80;;
12177;SDS011;6152;48.728;9.256;2022-12-29T01:36:29;1.40;;;0.60;;
12177;SDS011;6152;48.728;9.256;2022-12-29T01:38:55;2.38;;;1.23;;
12177;SDS011;6152;48.728;9.256;2022-12-29T01:41:21;1.85;;;0.90;;
12177;SDS011;6152;48.728;9.256;2022-12-29T01:46:35;2.78;;;0.90;;
12177;SDS011;6152;48.728;9.256;2022-12-29T01:51:55;1.42;;;0.98;;
12177;SDS011;6152;48.728;9.256;2022-12-29T01:57:08;2.70;;;0.90;;
12177;SDS011;6152;48.728;9.256;2022-12-29T01:59:41;0.88;;;0.60;;
12177;SDS011;6152;48.728;9.256;2022-12-29T02:02:14;1.40;;;1.00;;
12177;SDS011;6152;48.728;9.256;2022-12-29T02:04:41;1.98;;;1.02;;
12177;SDS011;6152;48.728;9.256;2022-12-29T02:07:14;2.63;;;0.90;;
12177;SDS011;6152;48.728;9.256;2022-12-29T02:09:48;1.52;;;0.70;;
12177;SDS011;6152;48.728;9.256;2022-12-29T02:12:19;2.88;;;0.90;;
12177;SDS011;6152;48.728;9.256;2022-12-29T02:14:47;1.58;;;0.90;;
12177;SDS011;6152;48.728;9.256;2022-12-29T02:23:16;5.72;;;1.20;;
12177;SDS011;6152;48.728;9.256;2022-12-29T02:26:03;1.45;;;0.80;;
12177;SDS011;6152;48.728;9.256;2022-12-29T02:28:47;1.85;;;0.70;;
12177;SDS011;6152;48.728;9.256;2022-12-29T02:31:49;2.25;;;0.60;;
12177;SDS011;6152;48.728;9.256;2022-12-29T02:45:26;1.30;;;0.50;;
12177;SDS011;6152;48.728;9.256;2022-12-29T02:48:32;1.58;;;0.40;;
12177;SDS011;6152;48.728;9.256;2022-12-29T02:51:03;1.60;;;0.50;;
12177;SDS011;6152;48.728;9.256;2022-12-29T02:53:52;1.38;;;0.40;;
12177;SDS011;6152;48.728;9.256;2022-12-29T02:56:38;1.10;;;0.40;;
12177;SDS011;6152;48.728;9.256;2022-12-29T02:59:04;0.90;;;0.45;;
12177;SDS011;6152;48.728;9.256;2022-12-29T03:11:48;0.75;;;0.43;;
12177;SDS011;6152;48.728;9.256;2022-12-29T03:20:26;0.47;;;0.40;;
12177;SDS011;6152;48.728;9.256;2022-12-29T03:23:17;2.17;;;0.40;;
12177;SDS011;6152;48.728;9.256;2022-12-29T03:25:47;1.45;;;0.40;;
12177;SDS011;6152;48.728;9.256;2022-12-29T03:28:39;0.28;;;0.28;;
12177;SDS011;6152;48.728;9.256;2022-12-29T03:31:06;1.33;;;0.40;;
12177;SDS011;6152;48.728;9.256;2022-12-29T03:33:34;1.55;;;0.60;;
12177;SDS011;6152;48.728;9.256;2022-12-29T03:36:03;1.50;;;0.50;;
12177;SDS011;6152;48.728;9.256;2022-12-29T03:38:40;1.95;;;0.40;;
12177;SDS011;6152;48.728;9.256;2022-12-29T03:41:17;0.93;;;0.50;;
12177;SDS011;6152;48.728;9.256;2022-12-29T03:43:48;0.30;;;0.30;;
12177;SDS011;6152;48.728;9.256;2022-12-29T03:46:14;1.65;;;0.30;;
12177;SDS011;6152;48.728;9.256;2022-12-29T03:48:40;2.55;;;0.45;;
12177;SDS011;6152;48.728;9.256;2022-12-29T03:51:06;1.30;;;0.40;;
12177;SDS011;6152;48.728;9.256;2022-12-29T03:53:32;1.55;;;0.57;;
12177;SDS011;6152;48.728;9.256;2022-12-29T03:55:58;1.15;;;0.47;;
12177;SDS011;6152;48.728;9.256;2022-12-29T03:58:24;3.63;;;0.68;;
12177;SDS011;6152;48.728;9.256;2022-12-29T04:00:50;1.92;;;0.38;;
12177;SDS011;6152;48.728;9.256;2022-12-29T04:03:16;1.08;;;0.43;;
12177;SDS011;6152;48.728;9.256;2022-12-29T04:05:42;2.00;;;0.60;;
12177;SDS011;6152;48.728;9.256;2022-12-29T04:08:09;0.63;;;0.63;;
12177;SDS011;6152;48.728;9.256;2022-12-29T04:10:35;0.90;;;0.40;;
12177;SDS011;6152;48.728;9.256;2022-12-29T04:13:01;1.13;;;0.40;;
12177;SDS011;6152;48.728;9.256;2022-12-29T04:15:27;0.65;;;0.50;;
12177;SDS011;6152;48.728;9.256;2022-12-29T04:17:53;1.17;;;0.57;;
12177;SDS011;6152;48.728;9.256;2022-12-29T04:20:19;1.70;;;0.40;;
12177;SDS011;6152;48.728;9.256;2022-12-29T04:23:04;1.02;;;0.50;;
12177;SDS011;6152;48.728;9.256;2022-12-29T04:25:31;1.52;;;0.77;;
12177;SDS011;6152;48.728;9.256;2022-12-29T04:27:58;0.90;;;0.50;;
12177;SDS011;6152;48.728;9.256;2022-12-29T04:30:25;1.20;;;0.55;;
12177;SDS011;6152;48.728;9.256;2022-12-29T04:32:52;1.05;;;0.70;;
12177;SDS011;6152;48.728;9.256;2022-12-29T04:35:18;1.58;;;0.40;;
12177;SDS011;6152;48.728;9.256;2022-12-29T04:37:44;1.63;;;0.40;;
12177;SDS011;6152;48.728;9.256;2022-12-29T04:40:10;0.85;;;0.50;;
12177;SDS011;6152;48.728;9.256;2022-12-29T04:42:37;3.85;;;0.50;;
12177;SDS011;6152;48.728;9.256;2022-12-29T04:45:03;1.27;;;0.60;;
12177;SDS011;6152;48.728;9.256;2022-12-29T04:47:29;1.63;;;0.65;;
12177;SDS011;6152;48.728;9.256;2022-12-29T04:49:55;2.58;;;0.70;;
12177;SDS011;6152;48.728;9.256;2022-12-29T04:52:21;0.50;;;0.50;;
12177;SDS011;6152;48.728;9.256;2022-12-29T04:54:48;0.57;;;0.47;;
12177;SDS011;6152;48.728;9.256;2022-12-29T04:57:14;1.73;;;0.55;;
12177;SDS011;6152;48.728;9.256;2022-12-29T04:59:40;3.25;;;0.60;;
12177;SDS011;6152;48.728;9.256;2022-12-29T05:02:06;4.18;;;0.60;;
12177;SDS011;6152;48.728;9.256;2022-12-29T05:04:32;1.23;;;0.60;;
12177;SDS011;6152;48.728;9.256;2022-12-29T05:06:58;0.60;;;0.60;;
12177;SDS011;6152;48.728;9.256;2022-12-29T05:09:24;0.77;;;0.50;;
12177;SDS011;6152;48.728;9.256;2022-12-29T05:11:50;1.88;;;0.57;;
12177;SDS011;6152;48.728;9.256;2022-12-29T05:14:16;0.43;;;0.43;;
12177;SDS011;6152;48.728;9.256;2022-12-29T05:16:42;1.60;;;0.73;;
12177;SDS011;6152;48.728;9.256;2022-12-29T05:19:08;0.52;;;0.50;;
12177;SDS011;6152;48.728;9.256;2022-12-29T05:21:34;2.70;;;0.60;;
12177;SDS011;6152;48.728;9.256;2022-12-29T05:24:01;0.80;;;0.70;;
12177;SDS011;6152;48.728;9.256;2022-12-29T05:26:27;1.88;;;0.43;;
12177;SDS011;6152;48.728;9.256;2022-12-29T05:28:53;2.47;;;0.70;;
12177;SDS011;6152;48.728;9.256;2022-12-29T05:31:19;0.52;;;0.50;;
12177;SDS011;6152;48.728;9.256;2022-12-29T05:33:45;0.85;;;0.50;;
12177;SDS011;6152;48.728;9.256;2022-12-29T05:36:11;1.65;;;0.52;;
12177;SDS011;6152;48.728;9.256;2022-12-29T05:38:37;1.45;;;0.50;;
12177;SDS011;6152;48.728;9.256;2022-12-29T05:41:03;0.50;;;0.50;;
12177;SDS011;6152;48.728;9.256;2022-12-29T05:43:30;0.75;;;0.50;;
12177;SDS011;6152;48.728;9.256;2022-12-29T05:45:56;1.20;;;0.50;;
12177;SDS011;6152;48.728;9.256;2022-12-29T05:48:22;1.77;;;0.52;;
12177;SDS011;6152;48.728;9.256;2022-12-29T05:50:49;1.10;;;0.57;;
12177;SDS011;6152;48.728;9.256;2022-12-29T05:53:16;0.88;;;0.50;;
12177;SDS011;6152;48.728;9.256;2022-12-29T05:55:43;1.35;;;0.50;;
12177;SDS011;6152;48.728;9.256;2022-12-29T05:58:09;0.80;;;0.70;;
12177;SDS011;6152;48.728;9.256;2022-12-29T06:00:35;3.75;;;0.60;;
12177;SDS011;6152;48.728;9.256;2022-12-29T06:03:01;1.73;;;0.70;;
12177;SDS011;6152;48.728;9.256;2022-12-29T06:05:28;1.60;;;0.50;;
12177;SDS011;6152;48.728;9.256;2022-12-29T06:07:54;2.15;;;0.70;;
12177;SDS011;6152;48.728;9.256;2022-12-29T06:10:20;1.75;;;1.08;;
12177;SDS011;6152;48.728;9.256;2022-12-29T06:12:47;1.27;;;0.50;;
12177;SDS011;6152;48.728;9.256;2022-12-29T06:15:13;0.70;;;0.40;;
12177;SDS011;6152;48.728;9.256;2022-12-29T06:17:39;1.88;;;0.52;;
12177;SDS011;6152;48.728;9.256;2022-12-29T06:20:05;0.77;;;0.40;;
12177;SDS011;6152;48.728;9.256;2022-12-29T06:22:32;0.65;;;0.40;;
12177;SDS011;6152;48.728;9.256;2022-12-29T06:24:59;0.57;;;0.40;;
12177;SDS011;6152;48.728;9.256;2022-12-29T06:27:26;0.98;;;0.50;;
12177;SDS011;6152;48.728;9.256;2022-12-29T06:29:53;0.63;;;0.50;;
12177;SDS011;6152;48.728;9.256;2022-12-29T06:32:19;4.55;;;0.60;;
12177;SDS011;6152;48.728;9.256;2022-12-29T06:34:46;2.40;;;0.43;;
12177;SDS011;6152;48.728;9.256;2022-12-29T06:37:12;2.70;;;0.50;;
12177;SDS011;6152;48.728;9.256;2022-12-29T06:39:39;0.85;;;0.52;;
12177;SDS011;6152;48.728;9.256;2022-12-29T06:42:05;0.70;;;0.50;;
12177;SDS011;6152;48.728;9.256;2022-12-29T06:44:31;0.45;;;0.43;;
12177;SDS011;6152;48.728;9.256;2022-12-29T06:46:57;0.63;;;0.50;;
12177;SDS011;6152;48.728;9.256;2022-12-29T06:49:24;0.52;;;0.50;;
12177;SDS011;6152;48.728;9.256;2022-12-29T06:51:50;0.77;;;0.45;;
12177;SDS011;6152;48.728;9.256;2022-12-29T06:54:16;0.40;;;0.40;;
12177;SDS011;6152;48.728;9.256;2022-12-29T06:56:42;0.52;;;0.50;;
12177;SDS011;6152;48.728;9.256;2022-12-29T06:59:08;1.00;;;0.60;;
12177;SDS011;6152;48.728;9.256;2022-12-29T07:01:35;1.45;;;0.50;;
12177;SDS011;6152;48.728;9.256;2022-12-29T07:04:04;0.73;;;0.50;;
12177;SDS011;6152;48.728;9.256;2022-12-29T07:06:30;2.45;;;0.60;;
12177;SDS011;6152;48.728;9.256;2022-12-29T07:08:56;0.82;;;0.50;;
12177;SDS011;6152;48.728;9.256;2022-12-29T07:11:22;1.92;;;0.47;;
12177;SDS011;6152;48.728;9.256;2022-12-29T07:13:48;0.95;;;0.63;;
12177;SDS011;6152;48.728;9.256;2022-12-29T07:16:15;1.52;;;0.68;;
12177;SDS011;6152;48.728;9.256;2022-12-29T07:18:41;1.33;;;0.43;;
12177;SDS011;6152;48.728;9.256;2022-12-29T07:21:07;2.35;;;0.52;;
12177;SDS011;6152;48.728;9.256;2022-12-29T07:23:33;2.72;;;0.70;;
12177;SDS011;6152;48.728;9.256;2022-12-29T07:26:03;0.98;;;0.73;;
12177;SDS011;6152;48.728;9.256;2022-12-29T07:28:31;1.17;;;0.68;;
12177;SDS011;6152;48.728;9.256;2022-12-29T07:30:58;1.45;;;0.70;;
12177;SDS011;6152;48.728;9.256;2022-12-29T07:33:24;1.45;;;0.60;;
12177;SDS011;6152;48.728;9.256;2022-12-29T07:35:50;0.65;;;0.50;;
12177;SDS011;6152;48.728;9.256;2022-12-29T07:38:17;0.55;;;0.50;;
12177;SDS011;6152;48.728;9.256;2022-12-29T07:40:43;0.90;;;0.82;;
12177;SDS011;6152;48.728;9.256;2022-12-29T07:43:09;3.60;;;0.60;;
12177;SDS011;6152;48.728;9.256;2022-12-29T07:45:35;0.75;;;0.45;;
12177;SDS011;6152;48.728;9.256;2022-12-29T07:48:01;1.70;;;0.60;;
12177;SDS011;6152;48.728;9.256;2022-12-29T07:50:28;0.73;;;0.43;;
12177;SDS011;6152;48.728;9.256;2022-12-29T07:52:54;2.78;;;0.60;;
12177;SDS011;6152;48.728;9.256;2022-12-29T07:55:20;2.33;;;0.70;;
12177;SDS011;6152;48.728;9.256;2022-12-29T07:57:46;0.60;;;0.55;;
12177;SDS011;6152;48.728;9.256;2022-12-29T08:00:12;1.10;;;0.63;;
12177;SDS011;6152;48.728;9.256;2022-12-29T08:02:39;1.80;;;0.50;;
12177;SDS011;6152;48.728;9.256;2022-12-29T08:05:05;0.95;;;0.57;;
12177;SDS011;6152;48.728;9.256;2022-12-29T08:07:31;0.40;;;0.40;;
12177;SDS011;6152;48.728;9.256;2022-12-29T08:09:57;0.70;;;0.50;;
12177;SDS011;6152;48.728;9.256;2022-12-29T08:12:24;0.63;;;0.35;;
12177;SDS011;6152;48.728;9.256;2022-12-29T08:14:50;1.38;;;0.57;;
12177;SDS011;6152;48.728;9.256;2022-12-29T08:17:16;0.55;;;0.40;;
12177;SDS011;6152;48.728;9.256;2022-12-29T08:19:42;3.92;;;0.73;;
12177;SDS011;6152;48.728;9.256;2022-12-29T08:22:08;1.13;;;0.55;;
12177;SDS011;6152;48.728;9.256;2022-12-29T08:24:34;0.55;;;0.40;;
12177;SDS011;6152;48.728;9.256;2022-12-29T08:27:00;1.05;;;0.40;;
12177;SDS011;6152;48.728;9.256;2022-12-29T08:29:27;1.35;;;0.57;;
12177;SDS011;6152;48.728;9.256;2022-12-29T08:31:53;1.83;;;0.73;;
12177;SDS011;6152;48.728;9.256;2022-12-29T08:34:19;0.68;;;0.40;;
12177;SDS011;6152;48.728;9.256;2022-12-29T08:36:45;0.80;;;0.40;;
12177;SDS011;6152;48.728;9.256;2022-12-29T08:39:11;1.33;;;0.50;;
12177;SDS011;6152;48.728;9.256;2022-12-29T08:41:37;0.85;;;0.60;;
12177;SDS011;6152;48.728;9.256;2022-12-29T08:44:03;1.08;;;0.43;;
12177;SDS011;6152;48.728;9.256;2022-12-29T08:46:30;0.40;;;0.40;;
12177;SDS011;6152;48.728;9.256;2022-12-29T08:48:56;1.70;;;0.50;;
12177;SDS011;6152;48.728;9.256;2022-12-29T08:51:22;1.38;;;0.45;;
12177;SDS011;6152;48.728;9.256;2022-12-29T08:53:48;0.93;;;0.40;;
12177;SDS011;6152;48.728;9.256;2022-12-29T08:56:15;0.65;;;0.52;;
12177;SDS011;6152;48.728;9.256;2022-12-29T08:58:42;1.40;;;0.40;;
12177;SDS011;6152;48.728;9.256;2022-12-29T09:01:08;0.95;;;0.40;;
12177;SDS011;6152;48.728;9.256;2022-12-29T09:03:35;1.25;;;0.50;;
12177;SDS011;6152;48.728;9.256;2022-12-29T09:06:01;0.55;;;0.55;;
12177;SDS011;6152;48.728;9.256;2022-12-29T09:08:27;0.88;;;0.43;;
12177;SDS011;6152;48.728;9.256;2022-12-29T09:10:53;1.02;;;0.45;;
12177;SDS011;6152;48.728;9.256;2022-12-29T09:13:19;0.95;;;0.73;;
12177;SDS011;6152;48.728;9.256;2022-12-29T09:15:46;0.75;;;0.52;;
12177;SDS011;6152;48.728;9.256;2022-12-29T09:18:12;2.05;;;0.57;;
12177;SDS011;6152;48.728;9.256;2022-12-29T09:20:38;0.70;;;0.55;;
12177;SDS011;6152;48.728;9.256;2022-12-29T09:23:04;1.65;;;0.60;;
12177;SDS011;6152;48.728;9.256;2022-12-29T09:25:33;0.63;;;0.43;;
12177;SDS011;6152;48.728;9.256;2022-12-29T09:27:59;1.30;;;0.47;;
12177;SDS011;6152;48.728;9.256;2022-12-29T09:30:30;1.00;;;0.50;;
12177;SDS011;6152;48.728;9.256;2022-12-29T09:32:57;1.25;;;0.40;;
12177;SDS011;6152;48.728;9.256;2022-12-29T09:35:23;1.35;;;0.43;;
12177;SDS011;6152;48.728;9.256;2022-12-29T09:37:49;0.60;;;0.40;;
12177;SDS011;6152;48.728;9.256;2022-12-29T09:40:31;1.75;;;0.40;;
12177;SDS011;6152;48.728;9.256;2022-12-29T09:43:19;0.57;;;0.40;;
12177;SDS011;6152;48.728;9.256;2022-12-29T09:48:26;1.27;;;0.52;;
12177;SDS011;6152;48.728;9.256;2022-12-29T09:51:00;1.13;;;0.57;;
12177;SDS011;6152;48.728;9.256;2022-12-29T09:53:36;1.65;;;0.50;;
12177;SDS011;6152;48.728;9.256;2022-12-29T09:56:19;1.23;;;0.68;;
12177;SDS011;6152;48.728;9.256;2022-12-29T09:58:55;1.70;;;0.70;;
12177;SDS011;6152;48.728;9.256;2022-12-29T10:04:40;1.08;;;0.55;;
12177;SDS011;6152;48.728;9.256;2022-12-29T10:09:45;1.23;;;0.77;;
12177;SDS011;6152;48.728;9.256;2022-12-29T10:18:16;1.50;;;0.73;;
12177;SDS011;6152;48.728;9.256;2022-12-29T10:21:08;0.70;;;0.60;;
12177;SDS011;6152;48.728;9.256;2022-12-29T10:23:52;0.70;;;0.50;;
12177;SDS011;6152;48.728;9.256;2022-12-29T10:26:20;0.70;;;0.50;;
12177;SDS011;6152;48.728;9.256;2022-12-29T10:29:04;2.00;;;0.60;;
12177;SDS011;6152;48.728;9.256;2022-12-29T10:34:21;2.58;;;0.75;;
12177;SDS011;6152;48.728;9.256;2022-12-29T10:36:54;0.50;;;0.50;;
12177;SDS011;6152;48.728;9.256;2022-12-29T10:39:43;1.23;;;0.80;;
12177;SDS011;6152;48.728;9.256;2022-12-29T10:42:27;1.48;;;0.65;;
12177;SDS011;6152;48.728;9.256;2022-12-29T10:45:01;1.13;;;0.75;;
12177;SDS011;6152;48.728;9.256;2022-12-29T10:47:30;0.73;;;0.50;;
12177;SDS011;6152;48.728;9.256;2022-12-29T10:50:02;1.90;;;0.52;;
12177;SDS011;6152;48.728;9.256;2022-12-29T10:52:29;0.70;;;0.70;;
12177;SDS011;6152;48.728;9.256;2022-12-29T10:54:59;0.90;;;0.70;;
12177;SDS011;6152;48.728;9.256;2022-12-29T10:57:41;0.73;;;0.43;;
12177;SDS011;6152;48.728;9.256;2022-12-29T11:00:14;2.58;;;0.50;;
12177;SDS011;6152;48.728;9.256;2022-12-29T11:07:48;1.55;;;0.70;;
12177;SDS011;6152;48.728;9.256;2022-12-29T11:10:28;2.65;;;0.60;;
12177;SDS011;6152;48.728;9.256;2022-12-29T11:13:02;1.50;;;0.65;;
12177;SDS011;6152;48.728;9.256;2022-12-29T11:15:53;0.70;;;0.60;;
12177;SDS011;6152;48.728;9.256;2022-12-29T11:20:51;1.67;;;0.50;;
12177;SDS011;6152;48.728;9.256;2022-12-29T11:23:28;1.52;;;1.23;;
12177;SDS011;6152;48.728;9.256;2022-12-29T11:28:46;2.25;;;0.80;;
12177;SDS011;6152;48.728;9.256;2022-12-29T11:31:29;1.77;;;0.90;;
12177;SDS011;6152;48.728;9.256;2022-12-29T11:33:55;2.00;;;1.20;;
12177;SDS011;6152;48.728;9.256;2022-12-29T11:36:22;0.75;;;0.75;;
12177;SDS011;6152;48.728;9.256;2022-12-29T11:38:50;1.83;;;0.98;;
12177;SDS011;6152;48.728;9.256;2022-12-29T11:41:28;1.67;;;0.70;;
12177;SDS011;6152;48.728;9.256;2022-12-29T11:43:57;1.17;;;0.75;;
12177;SDS011;6152;48.728;9.256;2022-12-29T11:46:30;0.90;;;0.50;;
12177;SDS011;6152;48.728;9.256;2022-12-29T11:48:59;1.15;;;0.60;;
12177;SDS011;6152;48.728;9.256;2022-12-29T11:51:27;1.52;;;0.90;;
12177;SDS011;6152;48.728;9.256;2022-12-29T11:54:06;1.35;;;0.60;;
12177;SDS011;6152;48.728;9.256;2022-12-29T12:02:03;1.75;;;0.60;;
12177;SDS011;6152;48.728;9.256;2022-12-29T12:04:48;1.40;;;0.57;;
12177;SDS011;6152;48.728;9.256;2022-12-29T12:07:20;2.28;;;0.60;;
12177;SDS011;6152;48.728;9.256;2022-12-29T12:09:58;1.27;;;0.60;;
12177;SDS011;6152;48.728;9.256;2022-12-29T12:12:29;0.75;;;0.75;;
12177;SDS011;6152;48.728;9.256;2022-12-29T12:15:04;0.60;;;0.60;;
12177;SDS011;6152;48.728;9.256;2022-12-29T12:17:47;1.92;;;0.70;;
12177;SDS011;6152;48.728;9.256;2022-12-29T12:20:46;1.30;;;0.70;;
12177;SDS011;6152;48.728;9.256;2022-12-29T12:26:27;0.85;;;0.68;;
12177;SDS011;6152;48.728;9.256;2022-12-29T12:34:26;0.85;;;0.73;;
12177;SDS011;6152;48.728;9.256;2022-12-29T12:42:45;1.83;;;0.60;;
12177;SDS011;6152;48.728;9.256;2022-12-29T12:48:22;2.08;;;0.75;;
12177;SDS011;6152;48.728;9.256;2022-12-29T12:51:20;2.20;;;0.75;;
12177;SDS011;6152;48.728;9.256;2022-12-29T12:54:11;0.98;;;0.68;;
12177;SDS011;6152;48.728;9.256;2022-12-29T12:57:11;1.65;;;0.75;;
12177;SDS011;6152;48.728;9.256;2022-12-29T13:15:23;0.80;;;0.80;;
12177;SDS011;6152;48.728;9.256;2022-12-29T13:20:47;0.80;;;0.77;;
12177;SDS011;6152;48.728;9.256;2022-12-29T13:28:51;1.00;;;0.85;;
12177;SDS011;6152;48.728;9.256;2022-12-29T13:34:38;1.38;;;0.60;;
12177;SDS011;6152;48.728;9.256;2022-12-29T13:37:15;0.85;;;0.50;;
12177;SDS011;6152;48.728;9.256;2022-12-29T13:39:55;0.55;;;0.50;;
12177;SDS011;6152;48.728;9.256;2022-12-29T13:42:42;0.95;;;0.80;;
12177;SDS011;6152;48.728;9.256;2022-12-29T13:45:12;0.93;;;0.70;;
12177;SDS011;6152;48.728;9.256;2022-12-29T13:47:52;1.02;;;0.50;;
12177;SDS011;6152;48.728;9.256;2022-12-29T13:50:25;0.80;;;0.80;;
12177;SDS011;6152;48.728;9.256;2022-12-29T13:53:01;3.25;;;0.70;;
12177;SDS011;6152;48.728;9.256;2022-12-29T13:58:44;1.00;;;0.65;;
12177;SDS011;6152;48.728;9.256;2022-12-29T14:01:34;0.90;;;0.60;;
12177;SDS011;6152;48.728;9.256;2022-12-29T14:04:09;0.68;;;0.60;;
12177;SDS011;6152;48.728;9.256;2022-12-29T14:06:39;1.38;;;0.80;;
12177;SDS011;6152;48.728;9.256;2022-12-29T14:14:52;2.95;;;0.82;;
12177;SDS011;6152;48.728;9.256;2022-12-29T14:17:19;2.70;;;0.98;;
12177;SDS011;6152;48.728;9.256;2022-12-29T14:19:46;0.93;;;0.70;;
12177;SDS011;6152;48.728;9.256;2022-12-29T14:22:24;0.70;;;0.70;;
12177;SDS011;6152;48.728;9.256;2022-12-29T14:24:52;3.45;;;0.90;;
12177;SDS011;6152;48.728;9.256;2022-12-29T14:29:45;2.05;;;1.00;;
12177;SDS011;6152;48.728;9.256;2022-12-29T14:34:57;2.20;;;1.13;;
12177;SDS011;6152;48.728;9.256;2022-12-29T14:37:27;0.80;;;0.75;;
12177;SDS011;6152;48.728;9.256;2022-12-29T14:40:04;2.10;;;1.08;;
12177;SDS011;6152;48.728;9.256;2022-12-29T14:42:30;1.65;;;1.00;;
12177;SDS011;6152;48.728;9.256;2022-12-29T14:47:49;2.17;;;1.23;;
12177;SDS011;6152;48.728;9.256;2022-12-29T14:53:10;1.30;;;0.95;;
12177;SDS011;6152;48.728;9.256;2022-12-29T14:56:08;1.50;;;1.10;;
12177;SDS011;6152;48.728;9.256;2022-12-29T14:58:45;2.90;;;1.30;;
12177;SDS011;6152;48.728;9.256;2022-12-29T15:04:40;3.38;;;1.40;;
12177;SDS011;6152;48.728;9.256;2022-12-29T15:07:00;3.53;;;1.30;;
12177;SDS011;6152;48.728;9.256;2022-12-29T15:09:36;1.90;;;1.02;;
12177;SDS011;6152;48.728;9.256;2022-12-29T15:12:19;1.80;;;1.20;;
12177;SDS011;6152;48.728;9.256;2022-12-29T15:14:56;3.70;;;1.10;;
12177;SDS011;6152;48.728;9.256;2022-12-29T15:19:58;1.67;;;0.80;;
12177;SDS011;6152;48.728;9.256;2022-12-29T15:22:26;2.38;;;0.98;;
12177;SDS011;6152;48.728;9.256;2022-12-29T15:24:52;1.73;;;1.00;;
12177;SDS011;6152;48.728;9.256;2022-12-29T15:27:21;2.53;;;1.10;;
12177;SDS011;6152;48.728;9.256;2022-12-29T15:29:59;1.35;;;1.00;;
12177;SDS011;6152;48.728;9.256;2022-12-29T15:32:29;1.73;;;1.23;;
12177;SDS011;6152;48.728;9.256;2022-12-29T15:35:16;1.90;;;0.90;;
12177;SDS011;6152;48.728;9.256;2022-12-29T15:37:59;1.05;;;0.70;;
12177;SDS011;6152;48.728;9.256;2022-12-29T15:40:37;1.55;;;0.73;;
12177;SDS011;6152;48.728;9.256;2022-12-29T15:43:12;1.73;;;1.00;;
12177;SDS011;6152;48.728;9.256;2022-12-29T15:45:49;4.15;;;0.82;;
12177;SDS011;6152;48.728;9.256;2022-12-29T15:48:20;2.10;;;1.10;;
12177;SDS011;6152;48.728;9.256;2022-12-29T15:50:48;1.50;;;0.95;;
12177;SDS011;6152;48.728;9.256;2022-12-29T15:53:23;1.55;;;1.08;;
12177;SDS011;6152;48.728;9.256;2022-12-29T15:55:54;1.65;;;0.70;;
12177;SDS011;6152;48.728;9.256;2022-12-29T15:58:29;2.97;;;1.02;;
12177;SDS011;6152;48.728;9.256;2022-12-29T16:00:57;2.47;;;0.93;;
12177;SDS011;6152;48.728;9.256;2022-12-29T16:03:26;1.27;;;0.90;;
12177;SDS011;6152;48.728;9.256;2022-12-29T16:05:57;2.55;;;1.10;;
12177;SDS011;6152;48.728;9.256;2022-12-29T16:08:36;3.22;;;1.00;;
12177;SDS011;6152;48.728;9.256;2022-12-29T16:11:07;1.08;;;0.80;;
12177;SDS011;6152;48.728;9.256;2022-12-29T16:13:49;2.38;;;1.52;;
12177;SDS011;6152;48.728;9.256;2022-12-29T16:16:21;1.52;;;1.08;;
12177;SDS011;6152;48.728;9.256;2022-12-29T16:18:53;2.30;;;1.33;;
12177;SDS011;6152;48.728;9.256;2022-12-29T16:21:28;1.40;;;1.10;;
12177;SDS011;6152;48.728;9.256;2022-12-29T16:24:02;2.30;;;0.95;;
12177;SDS011;6152;48.728;9.256;2022-12-29T16:26:33;1.15;;;1.08;;
12177;SDS011;6152;48.728;9.256;2022-12-29T16:29:01;1.95;;;0.90;;
12177;SDS011;6152;48.728;9.256;2022-12-29T16:34:24;1.85;;;0.40;;
12177;SDS011;6152;48.728;9.256;2022-12-29T16:37:01;1.20;;;0.63;;
12177;SDS011;6152;48.728;9.256;2022-12-29T16:39:38;1.50;;;0.98;;
12177;SDS011;6152;48.728;9.256;2022-12-29T16:50:31;0.98;;;0.40;;
12177;SDS011;6152;48.728;9.256;2022-12-29T16:53:02;1.08;;;0.47;;
12177;SDS011;6152;48.728;9.256;2022-12-29T16:55:29;2.55;;;0.50;;
12177;SDS011;6152;48.728;9.256;2022-12-29T16:57:56;1.30;;;0.73;;
12177;SDS011;6152;48.728;9.256;2022-12-29T17:00:24;2.95;;;1.70;;
12177;SDS011;6152;48.728;9.256;2022-12-29T17:02:54;3.13;;;1.85;;
12177;SDS011;6152;48.728;9.256;2022-12-29T17:05:23;14.18;;;7.25;;
12177;SDS011;6152;48.728;9.256;2022-12-29T17:07:50;23.30;;;12.77;;
12177;SDS011;6152;48.728;9.256;2022-12-29T17:10:18;8.68;;;5.88;;
12177;SDS011;6152;48.728;9.256;2022-12-29T17:12:45;2.83;;;1.70;;
12177;SDS011;6152;48.728;9.256;2022-12-29T17:15:14;3.35;;;2.58;;
12177;SDS011;6152;48.728;9.256;2022-12-29T17:17:51;2.03;;;0.75;;
12177;SDS011;6152;48.728;9.256;2022-12-29T17:22:49;1.20;;;0.57;;
12177;SDS011;6152;48.728;9.256;2022-12-29T17:25:18;1.42;;;0.60;;
12177;SDS011;6152;48.728;9.256;2022-12-29T17:28:00;1.75;;;0.70;;
12177;SDS011;6152;48.728;9.256;2022-12-29T17:30:29;0.68;;;0.50;;
12177;SDS011;6152;48.728;9.256;2022-12-29T17:33:00;1.15;;;0.80;;
12177;SDS011;6152;48.728;9.256;2022-12-29T17:35:33;0.75;;;0.60;;
12177;SDS011;6152;48.728;9.256;2022-12-29T17:38:00;1.45;;;0.65;;
12177;SDS011;6152;48.728;9.256;2022-12-29T17:40:27;1.00;;;0.75;;
12177;SDS011;6152;48.728;9.256;2022-12-29T17:42:56;1.15;;;0.70;;
12177;SDS011;6152;48.728;9.256;2022-12-29T17:45:27;2.80;;;1.10;;
12177;SDS011;6152;48.728;9.256;2022-12-29T17:47:55;1.67;;;0.93;;
12177;SDS011;6152;48.728;9.256;2022-12-29T17:50:26;1.85;;;1.10;;
12177;SDS011;6152;48.728;9.256;2022-12-29T17:52:59;1.33;;;1.10;;
12177;SDS011;6152;48.728;9.256;2022-12-29T17:55:28;1.40;;;0.73;;
12177;SDS011;6152;48.728;9.256;2022-12-29T17:57:54;1.40;;;0.82;;
12177;SDS011;6152;48.728;9.256;2022-12-29T18:00:22;1.83;;;0.90;;
12177;SDS011;6152;48.728;9.256;2022-12-29T18:02:53;2.60;;;1.27;;